Archival Weather

Greater Kankakee

Kankakee, Illinois (KIKK)

Report from: Tuesday, June 6, 2023 8:15 PM CDT
Current time: Tuesday, July 16, 2024 3:38 AM CDT

Current weather – Weather history – Daily summaries
Weather forecast

Temperature19.0°C (66.2°F)
Dew point11.5°C (52.7°F)
Winds 9 kts (4.6 m/s, 10.4 mph) Northeast (40°)
Visibility10 mi. (16.1 km)
Clouds Sky clear
Altimeter29.90 in.Hg (1013 mB)
Relative humidity62 %
Density altitude684 ft. (209 m)
Remarks Fully automated report
Automated weather observing station with precipitation discriminator
Present weather sensor not operating
Flight conditions Visual Meteorological Conditions
Raw dataKIKK 070115Z AUTO 04009KT 10SM CLR 19/12 A2990 RMK AO2 T01900115 PWINO
An error has occurred. This application may no longer respond until reloaded. Reload 🗙